createdAt,value
2022-08-17T00:00:43.547Z,90
2022-08-17T00:01:51.398Z,90
2022-08-17T00:02:32.086Z,90
2022-08-17T00:03:31.981Z,90
2022-08-17T00:04:32.013Z,90
2022-08-17T00:05:32.058Z,90
2022-08-17T00:06:31.999Z,90
2022-08-17T00:07:31.996Z,90
2022-08-17T00:08:31.981Z,90
2022-08-17T00:09:31.950Z,90
2022-08-17T00:10:32.443Z,90
2022-08-17T00:11:32.006Z,90
2022-08-17T00:12:41.444Z,91
2022-08-17T00:13:31.966Z,91
2022-08-17T00:14:31.984Z,91
2022-08-17T00:15:31.985Z,91
2022-08-17T00:16:55.756Z,91
2022-08-17T00:17:32.041Z,91
2022-08-17T00:19:01.738Z,91
2022-08-17T00:19:32.012Z,91
2022-08-17T00:20:34.924Z,91
2022-08-17T00:21:36.131Z,91
2022-08-17T00:22:36.114Z,91
2022-08-17T00:23:32.004Z,91
2022-08-17T00:24:31.965Z,91
2022-08-17T00:25:31.988Z,91
2022-08-17T00:26:45.238Z,91
2022-08-17T00:27:31.997Z,91
2022-08-17T00:28:33.351Z,91
2022-08-17T00:29:32.094Z,91
2022-08-17T00:30:48.457Z,91
2022-08-17T00:31:32.028Z,91
2022-08-17T00:33:10.814Z,91
2022-08-17T00:33:32.020Z,91
2022-08-17T00:34:31.960Z,92
2022-08-17T00:35:31.974Z,92
2022-08-17T00:36:31.978Z,92
2022-08-17T00:37:31.977Z,92
2022-08-17T00:38:31.975Z,92
2022-08-17T00:39:32.006Z,92
2022-08-17T00:40:40.621Z,92
2022-08-17T00:41:31.992Z,92
2022-08-17T00:42:31.964Z,92
2022-08-17T00:43:31.970Z,92
2022-08-17T00:44:31.962Z,92
2022-08-17T00:45:31.959Z,92
2022-08-17T00:46:31.961Z,92
2022-08-17T00:47:31.988Z,92
2022-08-17T00:48:32.009Z,92
2022-08-17T00:49:31.969Z,92
2022-08-17T00:50:31.961Z,92
2022-08-17T00:51:31.987Z,92
2022-08-17T00:52:31.988Z,92
2022-08-17T00:53:31.982Z,92
2022-08-17T00:54:31.965Z,92
2022-08-17T00:55:31.983Z,92
2022-08-17T00:56:31.987Z,93
2022-08-17T00:57:31.972Z,93
2022-08-17T00:58:36.595Z,92
2022-08-17T00:59:31.965Z,92
2022-08-17T01:00:31.961Z,93
2022-08-17T01:01:32.003Z,93
2022-08-17T01:02:41.339Z,93
2022-08-17T01:03:32.011Z,93
2022-08-17T01:04:32.002Z,93
2022-08-17T01:05:32.023Z,93
2022-08-17T01:06:31.950Z,93
2022-08-17T01:07:31.971Z,93
2022-08-17T01:08:32.035Z,93
2022-08-17T01:09:32.030Z,93
2022-08-17T01:10:57.462Z,93
2022-08-17T01:11:32.048Z,93
2022-08-17T01:12:31.993Z,93
2022-08-17T01:13:35.475Z,93
2022-08-17T01:14:32.108Z,93
2022-08-17T01:15:31.970Z,93
2022-08-17T01:16:31.975Z,93
2022-08-17T01:17:31.989Z,93
2022-08-17T01:18:31.993Z,93
2022-08-17T01:19:31.967Z,93
2022-08-17T01:20:31.979Z,93
2022-08-17T01:21:32.104Z,93
2022-08-17T01:22:31.984Z,93
2022-08-17T01:23:31.960Z,93
2022-08-17T01:24:33.681Z,93
2022-08-17T01:25:31.959Z,93
2022-08-17T01:26:32.006Z,93
2022-08-17T01:27:32.024Z,93
2022-08-17T01:28:53.206Z,93
2022-08-17T01:29:32.020Z,93
2022-08-17T01:30:57.088Z,93
2022-08-17T01:31:32.040Z,93
2022-08-17T01:32:31.988Z,93
2022-08-17T01:33:32.013Z,93
2022-08-17T01:34:42.440Z,93
2022-08-17T01:35:31.978Z,93
2022-08-17T01:36:31.985Z,93
2022-08-17T01:37:31.971Z,93
2022-08-17T01:38:32.113Z,93
2022-08-17T01:39:32.046Z,93
2022-08-17T01:40:32.117Z,93
2022-08-17T01:41:32.113Z,93
2022-08-17T01:42:32.108Z,93
2022-08-17T01:43:32.138Z,93
2022-08-17T01:44:32.073Z,93
2022-08-17T01:45:32.091Z,93
2022-08-17T01:46:32.203Z,93
2022-08-17T01:47:32.132Z,93
2022-08-17T01:48:32.042Z,93
2022-08-17T01:49:31.931Z,93
2022-08-17T01:50:31.999Z,93
2022-08-17T01:51:31.983Z,93
2022-08-17T01:52:31.967Z,93
2022-08-17T01:53:31.981Z,93
2022-08-17T01:54:31.985Z,93
2022-08-17T01:55:31.992Z,93
2022-08-17T01:56:31.985Z,93
2022-08-17T01:57:31.964Z,94
2022-08-17T01:58:31.975Z,94
2022-08-17T01:59:31.978Z,94
2022-08-17T02:00:59.474Z,94
2022-08-17T02:01:32.098Z,94
2022-08-17T02:02:31.966Z,94
2022-08-17T02:03:31.971Z,94
2022-08-17T02:04:31.982Z,94
2022-08-17T02:05:31.983Z,94
2022-08-17T02:06:44.868Z,94
2022-08-17T02:07:31.981Z,94
2022-08-17T02:08:38.954Z,94
2022-08-17T02:09:32.006Z,94
2022-08-17T02:10:33.957Z,94
2022-08-17T02:11:32.215Z,94
2022-08-17T02:12:39.279Z,94
2022-08-17T02:13:31.963Z,94
2022-08-17T02:14:32.086Z,94
2022-08-17T02:15:32.135Z,94
2022-08-17T02:16:37.826Z,94
2022-08-17T02:17:31.945Z,94
2022-08-17T02:18:31.968Z,94
2022-08-17T02:19:31.948Z,94
2022-08-17T02:20:41.351Z,94
2022-08-17T02:21:31.939Z,94
2022-08-17T02:22:31.987Z,94
2022-08-17T02:23:31.957Z,94
2022-08-17T02:25:00.213Z,94
2022-08-17T02:25:32.030Z,94
2022-08-17T02:26:32.117Z,94
2022-08-17T02:27:31.954Z,94
2022-08-17T02:28:31.988Z,94
2022-08-17T02:29:31.973Z,94
2022-08-17T02:31:01.517Z,94
2022-08-17T02:31:32.017Z,94
2022-08-17T02:32:31.965Z,94
2022-08-17T02:33:42.091Z,95
2022-08-17T02:34:31.970Z,95
2022-08-17T02:35:31.958Z,95
2022-08-17T02:36:31.982Z,95
2022-08-17T02:37:31.976Z,95
2022-08-17T02:38:31.950Z,95
2022-08-17T02:39:32.094Z,95
2022-08-17T02:40:36.354Z,95
2022-08-17T02:41:31.934Z,95
2022-08-17T02:42:32.087Z,95
2022-08-17T02:43:31.972Z,95
2022-08-17T02:44:39.149Z,95
2022-08-17T02:45:32.162Z,95
2022-08-17T02:46:31.966Z,95
2022-08-17T02:47:31.953Z,95
2022-08-17T02:48:32.143Z,95
2022-08-17T02:49:32.060Z,95
2022-08-17T02:50:31.959Z,95
2022-08-17T02:51:31.943Z,95
2022-08-17T02:52:43.003Z,95
2022-08-17T02:53:36.012Z,95
2022-08-17T02:54:41.144Z,95
2022-08-17T02:55:31.951Z,95
2022-08-17T02:56:31.973Z,95
2022-08-17T02:57:31.972Z,95
2022-08-17T02:58:35.396Z,95
2022-08-17T02:59:31.950Z,95
2022-08-17T03:00:31.958Z,95
2022-08-17T03:01:32.047Z,95
2022-08-17T03:02:31.954Z,95
2022-08-17T03:03:31.936Z,95
2022-08-17T03:04:34.895Z,95
2022-08-17T03:05:31.969Z,95
2022-08-17T03:06:31.996Z,95
2022-08-17T03:07:31.953Z,95
2022-08-17T03:08:31.955Z,95
2022-08-17T03:09:31.969Z,95
2022-08-17T03:10:32.052Z,95
2022-08-17T03:11:31.961Z,95
2022-08-17T03:12:32.091Z,95
2022-08-17T03:13:32.141Z,95
2022-08-17T03:14:32.043Z,95
2022-08-17T03:15:32.104Z,95
2022-08-17T03:16:32.093Z,95
2022-08-17T03:17:32.100Z,95
2022-08-17T03:18:32.343Z,95
2022-08-17T03:19:32.093Z,95
2022-08-17T03:20:32.096Z,95
2022-08-17T03:21:32.072Z,95
2022-08-17T03:22:36.657Z,95
2022-08-17T03:23:32.165Z,95
2022-08-17T03:24:32.066Z,95
2022-08-17T03:25:32.107Z,95
2022-08-17T03:26:32.131Z,95
2022-08-17T03:27:32.103Z,95
2022-08-17T03:28:32.156Z,95
2022-08-17T03:29:32.079Z,95
2022-08-17T03:30:31.970Z,95
2022-08-17T03:31:31.955Z,95
2022-08-17T03:32:31.965Z,95
2022-08-17T03:33:31.980Z,95
2022-08-17T03:34:31.974Z,95
2022-08-17T03:35:31.969Z,95
2022-08-17T03:36:31.946Z,95
2022-08-17T03:37:31.928Z,95
2022-08-17T03:38:39.342Z,95
2022-08-17T03:39:31.952Z,95
2022-08-17T03:40:58.108Z,95
2022-08-17T03:41:32.120Z,95
2022-08-17T03:42:32.942Z,95
2022-08-17T03:43:31.964Z,95
2022-08-17T03:44:31.949Z,95
2022-08-17T03:45:32.001Z,95
2022-08-17T03:46:35.295Z,95
2022-08-17T03:47:31.940Z,95
2022-08-17T03:48:31.948Z,95
2022-08-17T03:49:31.942Z,95
2022-08-17T03:50:31.962Z,95
2022-08-17T03:51:33.444Z,95
2022-08-17T03:52:32.136Z,95
2022-08-17T03:53:31.961Z,95
2022-08-17T03:54:31.970Z,95
2022-08-17T03:55:36.127Z,95
2022-08-17T03:56:31.925Z,95
2022-08-17T03:57:31.948Z,95
2022-08-17T03:58:31.960Z,95
2022-08-17T03:59:31.946Z,95
2022-08-17T04:00:31.952Z,95
2022-08-17T04:01:32.083Z,95
2022-08-17T04:02:31.972Z,95
2022-08-17T04:03:32.020Z,95
2022-08-17T04:04:31.930Z,95
2022-08-17T04:05:31.954Z,95
2022-08-17T04:06:31.977Z,95
2022-08-17T04:07:31.966Z,95
2022-08-17T04:08:32.013Z,95
2022-08-17T04:09:31.974Z,95
2022-08-17T04:10:32.913Z,95
2022-08-17T04:11:32.007Z,95
2022-08-17T04:12:31.942Z,95
2022-08-17T04:13:32.057Z,95
2022-08-17T04:14:31.973Z,95
2022-08-17T04:15:32.001Z,95
2022-08-17T04:16:32.073Z,95
2022-08-17T04:17:31.932Z,95
2022-08-17T04:18:31.965Z,94
2022-08-17T04:19:31.946Z,94
2022-08-17T04:20:31.942Z,94
2022-08-17T04:21:31.943Z,94
2022-08-17T04:22:34.278Z,94
2022-08-17T04:23:31.930Z,94
2022-08-17T04:24:31.935Z,94
2022-08-17T04:25:31.964Z,94
2022-08-17T04:26:53.331Z,94
2022-08-17T04:27:32.017Z,94
2022-08-17T04:28:31.972Z,94
2022-08-17T04:29:54.763Z,94
2022-08-17T04:30:31.992Z,94
2022-08-17T04:31:31.916Z,94
2022-08-17T04:33:03.692Z,94
2022-08-17T04:33:32.030Z,94
2022-08-17T04:34:32.015Z,94
2022-08-17T04:35:31.922Z,94
2022-08-17T04:36:31.937Z,94
2022-08-17T04:37:31.962Z,94
2022-08-17T04:38:31.985Z,94
2022-08-17T04:39:33.839Z,94
2022-08-17T04:40:31.921Z,94
2022-08-17T04:41:32.032Z,94
2022-08-17T04:42:31.948Z,94
2022-08-17T04:43:32.118Z,94
2022-08-17T04:44:37.068Z,94
2022-08-17T04:45:32.601Z,94
2022-08-17T04:46:31.922Z,94
2022-08-17T04:47:31.922Z,94
2022-08-17T04:48:36.690Z,94
2022-08-17T04:49:31.968Z,94
2022-08-17T04:50:31.942Z,94
2022-08-17T04:51:31.916Z,94
2022-08-17T04:52:43.434Z,94
2022-08-17T04:53:31.941Z,94
2022-08-17T04:54:32.077Z,94
2022-08-17T04:55:31.958Z,94
2022-08-17T04:56:31.983Z,94
2022-08-17T04:57:39.396Z,94
2022-08-17T04:58:31.972Z,94
2022-08-17T04:59:31.930Z,94
2022-08-17T05:00:31.949Z,94
2022-08-17T05:01:32.217Z,94
2022-08-17T05:02:31.989Z,94
2022-08-17T05:03:31.958Z,94
2022-08-17T05:04:33.663Z,94
2022-08-17T05:05:31.935Z,93
2022-08-17T05:06:31.968Z,93
2022-08-17T05:07:31.997Z,93
2022-08-17T05:08:31.991Z,93
2022-08-17T05:09:31.976Z,93
2022-08-17T05:10:31.941Z,93
2022-08-17T05:11:31.948Z,93
2022-08-17T05:12:32.025Z,93
2022-08-17T05:13:32.218Z,93
2022-08-17T05:14:32.966Z,93
2022-08-17T05:15:33.118Z,93
2022-08-17T05:16:31.947Z,93
2022-08-17T05:17:31.941Z,93
2022-08-17T05:18:31.961Z,93
2022-08-17T05:19:31.968Z,93
2022-08-17T05:20:31.970Z,93
2022-08-17T05:21:31.962Z,93
2022-08-17T05:22:31.963Z,93
2022-08-17T05:23:41.902Z,93
2022-08-17T05:24:39.061Z,93
2022-08-17T05:25:34.424Z,93
2022-08-17T05:26:31.917Z,93
2022-08-17T05:27:35.086Z,93
2022-08-17T05:28:31.998Z,93
2022-08-17T05:29:35.076Z,93
2022-08-17T05:30:31.930Z,93
2022-08-17T05:31:31.973Z,93
2022-08-17T05:32:38.921Z,93
2022-08-17T05:33:31.966Z,93
2022-08-17T05:34:31.936Z,93
2022-08-17T05:35:31.970Z,92
2022-08-17T05:36:42.841Z,92
2022-08-17T05:37:31.970Z,92
2022-08-17T05:38:31.973Z,92
2022-08-17T05:39:32.039Z,92
2022-08-17T05:40:32.829Z,92
2022-08-17T05:41:31.961Z,92
2022-08-17T05:42:31.962Z,92
2022-08-17T05:43:31.938Z,92
2022-08-17T05:44:31.984Z,92
2022-08-17T05:45:54.213Z,92
2022-08-17T05:46:31.994Z,92
2022-08-17T05:47:31.969Z,92
2022-08-17T05:48:39.775Z,92
2022-08-17T05:49:32.046Z,92
2022-08-17T05:50:31.972Z,92
2022-08-17T05:51:32.052Z,92
2022-08-17T05:52:31.944Z,92
2022-08-17T05:53:31.939Z,92
2022-08-17T05:54:31.906Z,92
2022-08-17T05:55:31.952Z,92
2022-08-17T05:56:31.958Z,92
2022-08-17T05:57:31.965Z,92
2022-08-17T05:58:31.942Z,92
2022-08-17T05:59:31.946Z,92
2022-08-17T06:00:32.077Z,92
2022-08-17T06:01:32.266Z,92
2022-08-17T06:02:32.108Z,92
2022-08-17T06:03:31.967Z,92
2022-08-17T06:04:31.960Z,92
2022-08-17T06:05:31.945Z,92
2022-08-17T06:06:32.028Z,91
2022-08-17T06:07:32.002Z,91
2022-08-17T06:08:31.968Z,91
2022-08-17T06:09:33.968Z,91
2022-08-17T06:10:31.936Z,91
2022-08-17T06:11:32.088Z,91
2022-08-17T06:12:32.042Z,91
2022-08-17T06:13:31.953Z,91
2022-08-17T06:14:31.989Z,91
2022-08-17T06:15:32.465Z,90
2022-08-17T06:16:34.119Z,90
2022-08-17T06:17:31.953Z,90
2022-08-17T06:18:31.973Z,90
2022-08-17T06:19:31.935Z,90
2022-08-17T06:20:31.996Z,90
2022-08-17T06:21:32.206Z,90
2022-08-17T06:22:31.951Z,90
2022-08-17T06:23:31.955Z,89
2022-08-17T06:24:31.942Z,89
2022-08-17T06:25:31.956Z,89
2022-08-17T06:26:39.702Z,89
2022-08-17T06:27:31.939Z,88
2022-08-17T06:28:31.963Z,88
2022-08-17T06:29:31.923Z,88
2022-08-17T06:30:36.749Z,87
2022-08-17T06:31:32.087Z,87
2022-08-17T06:32:31.965Z,87
2022-08-17T06:33:32.063Z,87
2022-08-17T06:34:31.933Z,87
2022-08-17T06:35:33.419Z,87
2022-08-17T06:36:31.987Z,86
2022-08-17T06:37:31.963Z,86
2022-08-17T06:38:38.246Z,86
2022-08-17T06:39:32.200Z,86
2022-08-17T06:40:31.951Z,86
2022-08-17T06:41:31.972Z,86
2022-08-17T06:43:05.074Z,87
2022-08-17T06:43:31.983Z,87
2022-08-17T06:44:49.789Z,87
2022-08-17T06:45:32.010Z,87
2022-08-17T06:46:31.956Z,87
2022-08-17T06:47:31.911Z,87
2022-08-17T06:48:31.934Z,87
2022-08-17T06:49:31.983Z,87
2022-08-17T06:50:31.947Z,86
2022-08-17T06:51:32.004Z,86
2022-08-17T06:52:45.696Z,86
2022-08-17T06:53:31.950Z,86
2022-08-17T06:54:32.037Z,85
2022-08-17T06:55:37.286Z,85
2022-08-17T06:56:53.024Z,85
2022-08-17T06:57:32.000Z,85
2022-08-17T06:58:31.957Z,84
2022-08-17T06:59:54.885Z,84
2022-08-17T07:00:32.047Z,84
2022-08-17T07:01:32.038Z,84
2022-08-17T07:02:51.943Z,84
2022-08-17T07:03:32.212Z,84
2022-08-17T07:04:31.933Z,83
2022-08-17T07:05:31.940Z,83
2022-08-17T07:06:31.950Z,84
2022-08-17T07:07:31.915Z,84
2022-08-17T07:08:34.657Z,84
2022-08-17T07:09:31.932Z,84
2022-08-17T07:10:32.027Z,83
2022-08-17T07:11:31.945Z,83
2022-08-17T07:12:31.961Z,82
2022-08-17T07:13:31.938Z,83
2022-08-17T07:14:31.966Z,82
2022-08-17T07:15:31.913Z,82
2022-08-17T07:16:31.953Z,82
2022-08-17T07:17:46.756Z,82
2022-08-17T07:18:32.019Z,81
2022-08-17T07:19:31.935Z,81
2022-08-17T07:20:31.927Z,81
2022-08-17T07:21:31.943Z,81
2022-08-17T07:22:57.807Z,81
2022-08-17T07:23:32.010Z,80
2022-08-17T07:24:32.083Z,81
2022-08-17T07:25:31.935Z,80
2022-08-17T07:26:32.008Z,80
2022-08-17T07:27:31.916Z,79
2022-08-17T07:28:31.929Z,79
2022-08-17T07:29:31.940Z,79
2022-08-17T07:30:31.941Z,79
2022-08-17T07:31:31.931Z,79
2022-08-17T07:32:31.924Z,79
2022-08-17T07:33:31.961Z,79
2022-08-17T07:34:31.945Z,79
2022-08-17T07:35:40.635Z,78
2022-08-17T07:36:31.935Z,77
2022-08-17T07:37:31.987Z,77
2022-08-17T07:38:31.944Z,77
2022-08-17T07:39:31.980Z,76
2022-08-17T07:40:31.983Z,75
2022-08-17T07:41:53.346Z,75
2022-08-17T07:42:33.829Z,74
2022-08-17T07:43:31.955Z,73
2022-08-17T07:44:31.983Z,73
2022-08-17T07:45:31.948Z,74
2022-08-17T07:46:31.924Z,73
2022-08-17T07:47:31.938Z,71
2022-08-17T07:48:32.045Z,71
2022-08-17T07:49:31.947Z,71
2022-08-17T07:50:31.929Z,70
2022-08-17T07:51:31.944Z,71
2022-08-17T07:52:48.045Z,70
2022-08-17T07:53:32.034Z,70
2022-08-17T07:54:31.964Z,69
2022-08-17T07:55:32.193Z,68
2022-08-17T07:56:34.413Z,68
2022-08-17T07:57:31.956Z,68
2022-08-17T07:58:31.951Z,68
2022-08-17T07:59:33.465Z,69
2022-08-17T08:00:32.898Z,69
2022-08-17T08:01:39.388Z,68
2022-08-17T08:02:33.868Z,68
2022-08-17T08:03:32.430Z,69
2022-08-17T08:05:00.130Z,69
2022-08-17T08:05:49.267Z,69
2022-08-17T08:06:32.242Z,69
2022-08-17T08:07:31.978Z,67
2022-08-17T08:08:31.930Z,66
2022-08-17T08:09:31.935Z,65
2022-08-17T08:10:31.961Z,66
2022-08-17T08:11:31.966Z,66
2022-08-17T08:12:33.710Z,66
2022-08-17T08:13:31.982Z,65
2022-08-17T08:14:31.932Z,64
2022-08-17T08:15:31.949Z,64
2022-08-17T08:16:32.196Z,63
2022-08-17T08:17:31.948Z,63
2022-08-17T08:18:54.348Z,63
2022-08-17T08:19:32.236Z,64
2022-08-17T08:20:53.265Z,64
2022-08-17T08:21:32.002Z,64
2022-08-17T08:22:31.927Z,64
2022-08-17T08:23:31.918Z,64
2022-08-17T08:24:31.951Z,66
2022-08-17T08:25:31.931Z,66
2022-08-17T08:26:32.083Z,66
2022-08-17T08:27:32.083Z,65
2022-08-17T08:28:31.930Z,64
2022-08-17T08:29:31.906Z,64
2022-08-17T08:30:33.113Z,64
2022-08-17T08:31:32.005Z,63
2022-08-17T08:32:31.955Z,63
2022-08-17T08:33:31.942Z,63
2022-08-17T08:34:58.923Z,64
2022-08-17T08:35:32.017Z,63
2022-08-17T08:37:12.792Z,62
2022-08-17T08:37:36.679Z,63
2022-08-17T08:38:32.034Z,63
2022-08-17T08:39:32.047Z,62
2022-08-17T08:40:31.998Z,62
2022-08-17T08:41:31.954Z,62
2022-08-17T08:42:31.937Z,62
2022-08-17T08:43:31.960Z,63
2022-08-17T08:45:00.503Z,63
2022-08-17T08:45:31.989Z,63
2022-08-17T08:46:31.927Z,62
2022-08-17T08:47:31.929Z,63
2022-08-17T08:48:56.511Z,62
2022-08-17T08:50:01.258Z,62
2022-08-17T08:50:38.057Z,62
2022-08-17T08:51:32.061Z,63
2022-08-17T08:52:31.978Z,64
2022-08-17T08:53:31.917Z,64
2022-08-17T08:54:32.054Z,64
2022-08-17T08:55:31.939Z,64
2022-08-17T08:56:32.219Z,64
2022-08-17T08:57:34.417Z,64
2022-08-17T08:58:42.355Z,64
2022-08-17T08:59:31.940Z,64
2022-08-17T09:00:31.959Z,62
2022-08-17T09:01:31.938Z,61
2022-08-17T09:02:34.907Z,62
2022-08-17T09:03:51.722Z,63
2022-08-17T09:04:44.968Z,61
2022-08-17T09:05:32.009Z,61
2022-08-17T09:06:37.359Z,61
2022-08-17T09:07:31.954Z,62
2022-08-17T09:08:31.942Z,61
2022-08-17T09:09:31.970Z,61
2022-08-17T09:10:32.098Z,61
2022-08-17T09:11:31.944Z,61
2022-08-17T09:12:31.927Z,60
2022-08-17T09:13:31.985Z,61
2022-08-17T09:14:31.937Z,62
2022-08-17T09:15:31.946Z,60
2022-08-17T09:16:32.227Z,62
2022-08-17T09:17:31.911Z,62
2022-08-17T09:19:03.265Z,63
2022-08-17T09:19:31.970Z,63
2022-08-17T09:20:31.934Z,63
2022-08-17T09:21:33.901Z,63
2022-08-17T09:22:31.927Z,63
2022-08-17T09:23:31.891Z,63
2022-08-17T09:24:31.929Z,64
2022-08-17T09:25:31.967Z,63
2022-08-17T09:26:31.941Z,64
2022-08-17T09:27:32.014Z,63
2022-08-17T09:28:31.937Z,64
2022-08-17T09:29:31.998Z,62
2022-08-17T09:30:31.910Z,62
2022-08-17T09:31:33.436Z,62
2022-08-17T09:32:31.917Z,63
2022-08-17T09:33:31.927Z,62
2022-08-17T09:34:33.373Z,63
2022-08-17T09:35:32.885Z,61
2022-08-17T09:36:32.168Z,61
2022-08-17T09:37:31.935Z,61
2022-08-17T09:38:32.621Z,61
2022-08-17T09:39:32.046Z,61
2022-08-17T09:40:31.946Z,61
2022-08-17T09:41:31.921Z,62
2022-08-17T09:42:31.932Z,62
2022-08-17T09:43:31.936Z,62
2022-08-17T09:44:31.919Z,61
2022-08-17T09:45:31.962Z,60
2022-08-17T09:46:32.001Z,59
2022-08-17T09:47:31.913Z,59
2022-08-17T09:48:31.976Z,59
2022-08-17T09:49:32.054Z,59
2022-08-17T09:51:03.940Z,59
2022-08-17T09:51:32.093Z,59
2022-08-17T09:52:32.060Z,59
2022-08-17T09:53:32.221Z,59
2022-08-17T09:54:39.550Z,58
2022-08-17T09:55:31.934Z,59
2022-08-17T09:56:31.924Z,60
2022-08-17T09:57:32.502Z,60
2022-08-17T09:58:31.909Z,59
2022-08-17T09:59:38.475Z,60
2022-08-17T10:00:31.923Z,59
2022-08-17T10:01:32.097Z,59
2022-08-17T10:02:31.927Z,58
2022-08-17T10:03:32.050Z,58
2022-08-17T10:04:31.927Z,58
2022-08-17T10:05:31.983Z,59
2022-08-17T10:06:31.936Z,59
2022-08-17T10:07:32.052Z,59
2022-08-17T10:08:31.924Z,59
2022-08-17T10:09:31.907Z,58
2022-08-17T10:10:32.437Z,58
2022-08-17T10:11:33.861Z,57
2022-08-17T10:12:31.950Z,57
2022-08-17T10:13:31.985Z,57
2022-08-17T10:14:37.214Z,58
2022-08-17T10:15:31.960Z,57
2022-08-17T10:16:31.955Z,58
2022-08-17T10:17:31.935Z,57
2022-08-17T10:18:33.343Z,56
2022-08-17T10:19:31.918Z,55
2022-08-17T10:20:31.940Z,55
2022-08-17T10:21:31.933Z,55
2022-08-17T10:22:34.765Z,55
2022-08-17T10:23:31.970Z,55
2022-08-17T10:24:31.925Z,56
2022-08-17T10:25:53.500Z,55
2022-08-17T10:26:43.023Z,56
2022-08-17T10:27:31.997Z,56
2022-08-17T10:28:31.953Z,56
2022-08-17T10:29:46.263Z,56
2022-08-17T10:30:32.000Z,57
2022-08-17T10:31:35.208Z,57
2022-08-17T10:32:31.936Z,57
2022-08-17T10:33:31.916Z,57
2022-08-17T10:34:38.694Z,57
2022-08-17T10:35:31.958Z,57
2022-08-17T10:36:32.277Z,57
2022-08-17T10:37:31.954Z,57
2022-08-17T10:38:31.940Z,57
2022-08-17T10:39:31.971Z,57
2022-08-17T10:40:32.046Z,56
2022-08-17T10:41:34.720Z,57
2022-08-17T10:42:32.994Z,57
2022-08-17T10:43:31.963Z,56
2022-08-17T10:44:38.975Z,56
2022-08-17T10:45:31.914Z,56
2022-08-17T10:46:31.947Z,56
2022-08-17T10:47:47.171Z,55
2022-08-17T10:48:32.078Z,55
2022-08-17T10:49:31.916Z,55
2022-08-17T10:50:31.944Z,55
2022-08-17T10:51:32.127Z,55
2022-08-17T10:52:31.969Z,54
2022-08-17T10:53:31.916Z,54
2022-08-17T10:54:31.971Z,54
2022-08-17T10:55:31.911Z,54
2022-08-17T10:56:31.913Z,54
2022-08-17T10:57:32.076Z,54
2022-08-17T10:58:31.940Z,54
2022-08-17T10:59:31.978Z,54
2022-08-17T11:00:31.938Z,53
2022-08-17T11:01:32.125Z,53
2022-08-17T11:02:31.943Z,53
2022-08-17T11:03:31.918Z,52
2022-08-17T11:04:31.899Z,53
2022-08-17T11:05:31.921Z,52
2022-08-17T11:06:31.909Z,51
2022-08-17T11:07:31.928Z,52
2022-08-17T11:08:31.904Z,54
2022-08-17T11:09:31.921Z,53
2022-08-17T11:10:31.928Z,54
2022-08-17T11:11:31.929Z,54
2022-08-17T11:12:31.932Z,54
2022-08-17T11:13:31.920Z,55
2022-08-17T11:14:32.024Z,54
2022-08-17T11:15:31.908Z,54
2022-08-17T11:16:31.909Z,54
2022-08-17T11:17:32.065Z,55
2022-08-17T11:18:31.925Z,54
2022-08-17T11:19:31.930Z,54
2022-08-17T11:20:31.951Z,54
2022-08-17T11:21:31.952Z,54
2022-08-17T11:22:33.664Z,54
2022-08-17T11:23:31.921Z,54
2022-08-17T11:24:31.941Z,54
2022-08-17T11:25:31.924Z,53
2022-08-17T11:26:31.916Z,54
2022-08-17T11:27:31.923Z,53
2022-08-17T11:28:31.926Z,53
2022-08-17T11:29:31.920Z,53
2022-08-17T11:30:31.894Z,52
2022-08-17T11:31:38.679Z,52
2022-08-17T11:32:31.930Z,52
2022-08-17T11:33:31.916Z,52
2022-08-17T11:34:31.902Z,51
2022-08-17T11:35:31.901Z,51
2022-08-17T11:36:31.994Z,52
2022-08-17T11:37:31.988Z,51
2022-08-17T11:38:31.983Z,52
2022-08-17T11:39:31.980Z,52
2022-08-17T11:40:31.919Z,52
2022-08-17T11:41:31.966Z,52
2022-08-17T11:42:32.107Z,53
2022-08-17T11:43:31.997Z,53
2022-08-17T11:44:31.926Z,53
2022-08-17T11:45:32.991Z,53
2022-08-17T11:46:31.890Z,53
2022-08-17T11:47:31.926Z,52
2022-08-17T11:48:32.239Z,52
2022-08-17T11:49:31.927Z,52
2022-08-17T11:50:31.882Z,52
2022-08-17T11:51:31.917Z,52
2022-08-17T11:52:31.939Z,52
2022-08-17T11:53:31.920Z,51
2022-08-17T11:54:33.726Z,52
2022-08-17T11:55:35.723Z,52
2022-08-17T11:56:31.908Z,52
2022-08-17T11:57:31.922Z,52
2022-08-17T11:58:32.913Z,53
2022-08-17T11:59:41.049Z,54
2022-08-17T12:00:45.009Z,53
2022-08-17T12:01:48.964Z,51
2022-08-17T12:02:52.952Z,51
2022-08-17T12:03:57.072Z,52
2022-08-17T12:05:01.008Z,51
2022-08-17T12:06:05.030Z,51
2022-08-17T12:07:09.120Z,51
2022-08-17T12:08:12.926Z,52
2022-08-17T12:09:16.927Z,53
2022-08-17T12:10:20.930Z,52
2022-08-17T12:12:11.042Z,50
2022-08-17T12:12:29.004Z,50
2022-08-17T12:13:38.651Z,50
2022-08-17T12:14:51.712Z,49
2022-08-17T12:15:32.126Z,49
2022-08-17T12:16:32.155Z,48
2022-08-17T12:17:40.691Z,48
2022-08-17T12:18:31.909Z,48
2022-08-17T12:19:31.932Z,48
2022-08-17T12:20:32.149Z,48
2022-08-17T12:21:32.873Z,49
2022-08-17T12:22:36.889Z,48
2022-08-17T12:23:40.879Z,48
2022-08-17T12:24:44.894Z,49
2022-08-17T12:25:48.861Z,48
2022-08-17T12:26:53.300Z,48
2022-08-17T12:28:05.682Z,48
2022-08-17T12:29:01.124Z,49
2022-08-17T12:30:04.877Z,49
2022-08-17T12:31:08.897Z,49
2022-08-17T12:32:12.892Z,50
2022-08-17T12:33:25.760Z,50
2022-08-17T12:34:20.858Z,51
2022-08-17T12:35:24.849Z,50
2022-08-17T12:36:28.845Z,50
2022-08-17T12:37:31.967Z,50
2022-08-17T12:38:33.478Z,50
2022-08-17T12:39:34.066Z,50
2022-08-17T12:40:31.944Z,50
2022-08-17T12:41:31.976Z,50
2022-08-17T12:42:32.018Z,49
2022-08-17T12:43:32.019Z,49
2022-08-17T12:44:31.970Z,48
2022-08-17T12:45:31.916Z,47
2022-08-17T12:46:32.047Z,47
2022-08-17T12:47:31.975Z,48
2022-08-17T12:48:31.911Z,47
2022-08-17T12:49:31.946Z,46
2022-08-17T12:50:31.914Z,46
2022-08-17T12:51:31.922Z,46
2022-08-17T12:52:32.000Z,46
2022-08-17T12:53:31.943Z,47
2022-08-17T12:54:31.917Z,46
2022-08-17T12:55:33.824Z,46
2022-08-17T12:56:31.925Z,45
2022-08-17T12:57:32.027Z,47
2022-08-17T12:58:31.901Z,49
2022-08-17T12:59:31.912Z,49
2022-08-17T13:00:32.052Z,49
2022-08-17T13:01:32.046Z,49
2022-08-17T13:02:31.939Z,51
2022-08-17T13:03:36.195Z,52
2022-08-17T13:04:31.945Z,52
2022-08-17T13:05:31.931Z,53
2022-08-17T13:06:31.898Z,52
2022-08-17T13:07:31.959Z,51
2022-08-17T13:08:32.039Z,51
2022-08-17T13:09:40.309Z,51
2022-08-17T13:10:33.056Z,51
2022-08-17T13:11:31.904Z,52
2022-08-17T13:12:31.897Z,53
2022-08-17T13:13:31.956Z,54
2022-08-17T13:14:33.369Z,55
2022-08-17T13:15:32.059Z,54
2022-08-17T13:16:31.968Z,54
2022-08-17T13:17:32.082Z,55
2022-08-17T13:18:31.969Z,55
2022-08-17T13:19:40.464Z,54
2022-08-17T13:20:31.925Z,55
2022-08-17T13:21:31.933Z,56
2022-08-17T13:22:31.933Z,57
2022-08-17T13:23:32.359Z,57
2022-08-17T13:24:37.892Z,57
2022-08-17T13:25:31.916Z,57
2022-08-17T13:26:31.911Z,57
2022-08-17T13:27:31.938Z,58
2022-08-17T13:28:36.003Z,58
2022-08-17T13:29:32.016Z,58
2022-08-17T13:30:31.915Z,59
2022-08-17T13:31:31.907Z,59
2022-08-17T13:32:33.501Z,58
2022-08-17T13:33:44.600Z,58
2022-08-17T13:34:31.903Z,59
2022-08-17T13:35:39.416Z,58
2022-08-17T13:36:31.937Z,58
2022-08-17T13:37:32.063Z,57
2022-08-17T13:38:31.907Z,57
2022-08-17T13:39:32.034Z,57
2022-08-17T13:40:44.775Z,56
2022-08-17T13:41:48.763Z,56
2022-08-17T13:42:54.002Z,55
2022-08-17T13:43:56.757Z,55
2022-08-17T13:45:00.804Z,53
2022-08-17T13:46:04.754Z,53
2022-08-17T13:47:08.803Z,53
2022-08-17T13:48:14.061Z,53
2022-08-17T13:49:16.777Z,53
2022-08-17T13:50:20.831Z,53
2022-08-17T13:51:24.760Z,53
2022-08-17T13:52:28.750Z,53
2022-08-17T13:53:32.848Z,53
2022-08-17T13:54:31.954Z,53
2022-08-17T13:55:31.913Z,54
2022-08-17T13:56:38.850Z,52
2022-08-17T13:57:31.912Z,52
2022-08-17T13:58:31.894Z,52
2022-08-17T13:59:52.618Z,52
2022-08-17T14:00:32.113Z,52
2022-08-17T14:01:32.043Z,52
2022-08-17T14:02:31.904Z,51
2022-08-17T14:03:31.899Z,51
2022-08-17T14:04:31.910Z,52
2022-08-17T14:05:31.893Z,52
2022-08-17T14:06:52.236Z,52
2022-08-17T14:07:40.796Z,52
2022-08-17T14:08:44.781Z,52
2022-08-17T14:09:48.767Z,52
2022-08-17T14:10:52.914Z,51
2022-08-17T14:11:56.766Z,51
2022-08-17T14:13:00.772Z,52
2022-08-17T14:14:04.744Z,52
2022-08-17T14:15:08.747Z,52
2022-08-17T14:16:12.737Z,52
2022-08-17T14:17:16.802Z,51
2022-08-17T14:18:55.913Z,52
2022-08-17T14:19:24.790Z,52